Time;durP1;ratioP1;P1;durP2;ratioP2;P2;SDS_P1;SDS_P2;PMS_P1;PMS_P2;Temp;Humidity;BMP_temperature;BMP_pressure;BME280_temperature;BME280_humidity;BME280_pressure;Samples;Min_cycle;Max_cycle;Signal;HPM_P1;HPM_P2
2022/12/31 00:01:42;;;;;;;5.53;0.93;;;25.40;99.90;;;;;;4995143;28;20286;-80
2022/12/31 00:04:14;;;;;;;5.65;0.90;;;25.20;99.90;;;;;;4990234;28;20210;-79
2022/12/31 00:06:45;;;;;;;3.35;0.80;;;25.20;99.90;;;;;;4991738;28;20204;-79
2022/12/31 00:09:16;;;;;;;2.55;0.90;;;25.30;99.90;;;;;;4993935;28;20286;-80
2022/12/31 00:11:47;;;;;;;2.35;0.82;;;25.40;99.90;;;;;;4993591;28;20195;-81
2022/12/31 00:14:18;;;;;;;6.15;1.00;;;25.50;99.90;;;;;;4993126;28;20298;-80
2022/12/31 00:16:49;;;;;;;5.45;0.88;;;25.50;99.90;;;;;;4988266;28;20287;-78
2022/12/31 00:19:21;;;;;;;4.65;0.80;;;25.70;99.90;;;;;;4993387;28;20230;-79
2022/12/31 00:21:52;;;;;;;3.67;0.82;;;26.00;99.90;;;;;;4988209;28;20214;-79
2022/12/31 00:24:23;;;;;;;4.07;0.70;;;26.10;99.90;;;;;;4991297;28;20570;-78
2022/12/31 00:27:00;;;;;;;3.47;0.90;;;26.30;99.90;;;;;;4993947;28;20282;-78
2022/12/31 00:29:33;;;;;;;4.18;0.90;;;26.20;99.90;;;;;;4993763;28;20199;-79
2022/12/31 00:32:04;;;;;;;3.05;0.85;;;26.00;99.90;;;;;;4992804;28;20203;-82
2022/12/31 00:34:52;;;;;;;3.53;0.77;;;26.10;99.90;;;;;;4995315;28;20230;-79
2022/12/31 00:37:26;;;;;;;3.40;1.02;;;26.10;99.90;;;;;;4984186;28;20231;-79
2022/12/31 00:39:56;;;;;;;3.65;0.85;;;26.20;99.90;;;;;;4995174;28;20203;-79
2022/12/31 00:42:27;;;;;;;3.38;0.95;;;26.20;99.90;;;;;;4993340;28;20290;-80
2022/12/31 00:44:58;;;;;;;2.90;0.80;;;26.50;99.90;;;;;;4995287;28;20200;-79
2022/12/31 00:47:29;;;;;;;3.85;0.80;;;26.60;99.90;;;;;;4995470;28;20199;-80
2022/12/31 00:50:02;;;;;;;3.58;0.68;;;26.50;99.90;;;;;;4989898;28;20234;-80
2022/12/31 00:52:33;;;;;;;2.95;0.80;;;26.80;99.90;;;;;;4991624;28;20290;-80
2022/12/31 00:55:05;;;;;;;2.70;0.70;;;27.10;99.90;;;;;;4992389;28;20678;-80
2022/12/31 00:57:41;;;;;;;6.05;1.05;;;27.20;99.90;;;;;;4989075;28;20562;-81
2022/12/31 01:00:16;;;;;;;5.30;0.93;;;26.90;99.90;;;;;;4992951;28;20200;-80
2022/12/31 01:02:47;;;;;;;2.47;0.70;;;26.80;99.90;;;;;;4992842;28;20199;-80
2022/12/31 01:05:20;;;;;;;4.50;0.73;;;26.70;99.90;;;;;;4991445;28;20914;-82
2022/12/31 01:07:56;;;;;;;2.75;0.60;;;26.80;99.90;;;;;;4991640;28;20724;-80
2022/12/31 01:13:17;;;;;;;4.00;0.73;;;26.80;99.90;;;;;;4992522;28;20330;-80
2022/12/31 01:15:47;;;;;;;5.55;0.95;;;26.90;99.90;;;;;;4992964;28;20295;-80
2022/12/31 01:18:18;;;;;;;2.90;0.75;;;27.00;99.90;;;;;;4991793;28;20195;-82
2022/12/31 01:20:52;;;;;;;3.25;0.90;;;26.60;99.90;;;;;;4992640;28;20215;-81
2022/12/31 01:23:22;;;;;;;3.17;0.73;;;26.50;99.90;;;;;;4987180;28;20739;-81
2022/12/31 01:25:53;;;;;;;4.63;0.80;;;26.50;99.90;;;;;;4993461;28;20222;-80
2022/12/31 01:28:28;;;;;;;2.72;0.70;;;26.60;99.90;;;;;;4993629;28;20282;-81
2022/12/31 01:30:58;;;;;;;4.60;0.70;;;26.80;99.90;;;;;;4991431;28;20199;-80
2022/12/31 01:33:30;;;;;;;3.92;0.70;;;26.70;99.90;;;;;;4992551;28;20216;-83
2022/12/31 01:36:07;;;;;;;2.97;0.80;;;26.70;99.90;;;;;;4990497;28;20287;-80
2022/12/31 01:38:44;;;;;;;3.08;0.60;;;26.60;99.90;;;;;;4989312;28;20203;-80
2022/12/31 01:41:18;;;;;;;4.57;0.85;;;26.90;99.90;;;;;;4986669;28;20667;-84
2022/12/31 01:43:53;;;;;;;1.92;0.60;;;27.10;99.90;;;;;;4992307;28;20287;-83
2022/12/31 01:46:30;;;;;;;3.53;0.70;;;27.10;99.90;;;;;;4992427;28;20199;-80
2022/12/31 01:49:04;;;;;;;4.43;0.90;;;27.10;99.90;;;;;;4987661;28;20231;-79
2022/12/31 01:51:38;;;;;;;3.17;0.70;;;27.10;99.90;;;;;;4991104;28;20269;-80
2022/12/31 01:54:12;;;;;;;2.03;0.75;;;27.30;99.90;;;;;;4985622;28;20221;-80
2022/12/31 01:56:44;;;;;;;2.72;0.80;;;27.30;99.90;;;;;;4992972;28;20287;-78
2022/12/31 01:59:20;;;;;;;4.78;1.00;;;27.40;99.90;;;;;;4991486;28;20192;-80
2022/12/31 02:01:53;;;;;;;2.75;0.60;;;27.40;99.90;;;;;;4986465;28;20191;-82
2022/12/31 02:04:28;;;;;;;4.32;0.80;;;27.10;99.90;;;;;;4989670;28;20222;-83
2022/12/31 02:07:03;;;;;;;2.88;0.70;;;26.70;99.90;;;;;;4980288;28;20200;-80
2022/12/31 02:09:35;;;;;;;2.55;0.70;;;26.50;99.90;;;;;;4993872;28;20199;-79
2022/12/31 02:12:06;;;;;;;3.00;0.77;;;26.30;99.90;;;;;;4993625;28;20199;-81
2022/12/31 02:14:40;;;;;;;3.50;0.80;;;26.30;99.90;;;;;;4992370;28;20220;-80
2022/12/31 02:17:19;;;;;;;2.60;0.80;;;25.90;99.90;;;;;;4993677;28;20278;-83
2022/12/31 02:20:36;;;;;;;4.57;0.98;;;25.90;99.90;;;;;;4993367;28;20195;-80
2022/12/31 02:23:40;;;;;;;3.83;0.60;;;25.80;99.90;;;;;;4952629;29;20340;-79
2022/12/31 02:26:50;;;;;;;5.00;0.80;;;25.60;99.90;;;;;;4987873;28;20285;-81
2022/12/31 02:29:52;;;;;;;4.32;0.80;;;25.70;99.90;;;;;;4993560;28;20192;-79
2022/12/31 02:32:28;;;;;;;4.47;0.77;;;25.60;99.90;;;;;;4986830;28;20211;-81
2022/12/31 02:35:04;;;;;;;4.25;0.88;;;25.50;99.90;;;;;;4993408;28;20699;-82
2022/12/31 02:37:37;;;;;;;4.45;1.00;;;25.40;99.90;;;;;;4993162;28;20286;-80
2022/12/31 02:40:13;;;;;;;3.22;0.70;;;25.40;99.90;;;;;;4988880;28;20286;-79
2022/12/31 02:42:43;;;;;;;2.92;0.77;;;25.40;99.90;;;;;;4990917;28;20199;-79
2022/12/31 02:45:17;;;;;;;3.55;0.82;;;25.30;99.90;;;;;;4991136;28;20683;-80
2022/12/31 02:48:05;;;;;;;6.18;1.00;;;25.20;99.90;;;;;;4990961;28;20210;-80
2022/12/31 02:50:54;;;;;;;6.68;0.82;;;25.00;99.90;;;;;;4988549;28;20396;-80
2022/12/31 02:53:41;;;;;;;3.97;0.60;;;24.90;99.90;;;;;;4997109;28;20695;-80
2022/12/31 02:56:17;;;;;;;4.00;0.80;;;25.00;99.90;;;;;;4991228;28;20195;-81
2022/12/31 03:04:38;;;;;;;6.82;1.00;;;24.60;99.90;;;;;;4995500;28;20207;-79
2022/12/31 03:07:11;;;;;;;5.68;0.82;;;24.50;99.90;;;;;;4996475;28;20310;-79
2022/12/31 03:09:42;;;;;;;4.43;1.08;;;24.30;99.90;;;;;;4995655;28;20290;-79
2022/12/31 03:15:00;;;;;;;3.20;0.73;;;24.20;99.90;;;;;;4994485;28;20217;-79
2022/12/31 03:22:26;;;;;;;3.60;0.70;;;24.20;99.90;;;;;;4985821;28;20286;-79
2022/12/31 03:26:49;;;;;;;5.47;0.88;;;24.20;99.90;;;;;;4995962;28;20247;-79
2022/12/31 03:29:20;;;;;;;5.18;1.05;;;24.20;99.90;;;;;;4996826;28;20200;-79
2022/12/31 03:31:54;;;;;;;2.00;0.90;;;24.10;99.90;;;;;;4995638;28;20199;-79
2022/12/31 03:34:24;;;;;;;4.32;1.02;;;24.10;99.90;;;;;;4996983;28;20310;-81
2022/12/31 03:36:57;;;;;;;5.95;0.95;;;24.10;99.90;;;;;;4996295;28;20740;-79
2022/12/31 03:39:28;;;;;;;6.68;1.00;;;24.10;99.90;;;;;;4995842;28;20278;-78
2022/12/31 03:41:58;;;;;;;4.10;0.90;;;24.10;99.90;;;;;;4995538;28;20203;-80
2022/12/31 03:44:29;;;;;;;2.45;0.65;;;24.20;99.90;;;;;;4988072;28;20653;-79
2022/12/31 03:47:00;;;;;;;2.83;0.90;;;24.30;99.90;;;;;;4995597;28;20221;-79
2022/12/31 03:49:31;;;;;;;4.30;0.73;;;24.40;99.90;;;;;;4991556;28;20249;-81
2022/12/31 03:52:05;;;;;;;4.50;0.90;;;24.40;99.90;;;;;;4993519;28;20208;-78
2022/12/31 03:54:36;;;;;;;5.32;1.05;;;24.40;99.90;;;;;;4993961;28;20726;-79
2022/12/31 03:57:06;;;;;;;7.28;1.15;;;24.50;99.90;;;;;;4993714;28;20203;-78
2022/12/31 03:59:37;;;;;;;3.35;1.05;;;24.50;99.90;;;;;;4993865;28;20306;-79
2022/12/31 04:02:08;;;;;;;5.50;1.02;;;24.50;99.90;;;;;;4989607;28;20283;-79
2022/12/31 04:04:39;;;;;;;5.63;0.90;;;24.60;99.90;;;;;;4994082;28;21225;-79
2022/12/31 04:07:11;;;;;;;6.05;1.20;;;24.70;99.90;;;;;;4994757;28;20230;-79
2022/12/31 04:09:42;;;;;;;3.13;0.73;;;24.50;99.90;;;;;;4994896;28;20204;-78
2022/12/31 04:12:13;;;;;;;5.80;1.08;;;24.60;99.90;;;;;;4993340;28;20675;-81
2022/12/31 04:14:44;;;;;;;4.63;0.80;;;24.60;99.90;;;;;;4993402;28;20220;-80
2022/12/31 04:17:15;;;;;;;5.15;0.90;;;24.60;99.90;;;;;;4993662;28;20723;-78
2022/12/31 04:19:46;;;;;;;3.30;0.90;;;24.60;99.90;;;;;;4992076;28;20200;-78
2022/12/31 04:22:18;;;;;;;4.35;0.68;;;24.60;99.90;;;;;;4994703;28;20282;-80
2022/12/31 04:24:49;;;;;;;7.03;1.10;;;24.60;99.90;;;;;;4993098;28;20203;-80
2022/12/31 04:27:20;;;;;;;3.45;1.00;;;24.40;99.90;;;;;;4994270;28;20191;-79
2022/12/31 04:29:51;;;;;;;2.80;0.93;;;24.40;99.90;;;;;;4992494;28;20195;-79
2022/12/31 04:32:22;;;;;;;5.28;0.90;;;24.40;99.90;;;;;;4995308;28;20715;-79
2022/12/31 04:34:52;;;;;;;5.60;1.08;;;24.50;99.90;;;;;;4983104;28;20220;-78
2022/12/31 04:37:25;;;;;;;6.85;1.05;;;24.50;99.90;;;;;;4991604;28;20659;-79
2022/12/31 04:39:56;;;;;;;3.55;0.88;;;24.50;99.90;;;;;;4992760;28;20200;-80
2022/12/31 04:42:27;;;;;;;7.65;1.10;;;24.40;99.90;;;;;;4993855;28;20567;-79
2022/12/31 04:44:57;;;;;;;5.45;0.93;;;24.30;99.90;;;;;;4993707;28;20286;-78
2022/12/31 04:47:28;;;;;;;4.20;0.80;;;24.30;99.90;;;;;;4994479;28;20206;-82
2022/12/31 04:49:59;;;;;;;5.45;1.10;;;24.20;99.90;;;;;;4985983;28;20741;-81
2022/12/31 04:52:32;;;;;;;6.38;1.13;;;24.30;99.90;;;;;;4994054;28;20286;-81
2022/12/31 04:55:02;;;;;;;5.10;1.10;;;24.40;99.90;;;;;;4993647;28;20576;-80
2022/12/31 04:57:33;;;;;;;5.68;1.00;;;24.30;99.90;;;;;;4988839;28;20278;-79
2022/12/31 05:00:05;;;;;;;6.00;1.10;;;24.30;99.90;;;;;;4993371;28;20279;-83
2022/12/31 05:02:36;;;;;;;5.43;1.00;;;24.20;99.90;;;;;;4994252;28;20229;-81
2022/12/31 05:05:07;;;;;;;7.55;1.17;;;24.20;99.90;;;;;;4994814;28;20196;-80
2022/12/31 05:07:39;;;;;;;4.78;0.90;;;24.30;99.90;;;;;;4993811;28;20310;-81
2022/12/31 05:10:10;;;;;;;4.85;1.08;;;24.20;99.90;;;;;;4992435;28;20202;-81
2022/12/31 05:12:41;;;;;;;7.28;1.23;;;24.10;99.90;;;;;;4992207;28;20211;-81
2022/12/31 05:15:12;;;;;;;5.22;1.30;;;23.90;99.90;;;;;;4992705;28;20221;-79
2022/12/31 05:17:43;;;;;;;3.95;1.10;;;23.80;99.90;;;;;;4992757;28;20298;-80
2022/12/31 05:20:14;;;;;;;4.90;1.02;;;23.70;99.90;;;;;;4992447;28;20311;-80
2022/12/31 05:22:49;;;;;;;6.95;1.10;;;23.70;99.90;;;;;;4991881;28;20195;-80
2022/12/31 05:25:20;;;;;;;6.68;1.30;;;23.80;99.90;;;;;;4991515;28;20210;-80
2022/12/31 05:27:51;;;;;;;9.02;1.20;;;23.80;99.90;;;;;;4990767;28;20286;-80
2022/12/31 05:30:22;;;;;;;8.32;1.13;;;23.80;99.90;;;;;;4992565;28;20279;-80
2022/12/31 05:32:52;;;;;;;4.53;0.90;;;23.80;99.90;;;;;;4994082;28;20665;-80
2022/12/31 05:35:23;;;;;;;6.30;1.15;;;23.80;99.90;;;;;;4993268;28;20219;-79
2022/12/31 05:37:56;;;;;;;6.63;1.38;;;23.70;99.90;;;;;;4993234;28;20192;-80
2022/12/31 05:40:27;;;;;;;5.05;1.08;;;23.80;99.90;;;;;;4993904;28;20274;-79
2022/12/31 05:42:58;;;;;;;5.30;1.25;;;23.70;99.90;;;;;;4994272;28;20214;-80
2022/12/31 05:45:29;;;;;;;6.57;1.13;;;23.80;99.90;;;;;;4994599;28;20278;-81
2022/12/31 05:48:00;;;;;;;4.65;1.35;;;23.80;99.90;;;;;;4994182;28;20722;-80
2022/12/31 05:50:31;;;;;;;8.57;1.40;;;24.00;99.90;;;;;;4994246;28;20278;-81
2022/12/31 05:53:03;;;;;;;8.82;1.33;;;24.00;99.90;;;;;;4993264;28;20195;-81
2022/12/31 05:55:34;;;;;;;6.22;1.20;;;23.90;99.90;;;;;;4994275;28;20633;-81
2022/12/31 05:58:05;;;;;;;8.57;1.38;;;23.90;99.90;;;;;;4994079;28;20275;-79
2022/12/31 06:00:36;;;;;;;5.43;1.02;;;23.80;99.90;;;;;;4994165;28;20205;-79
2022/12/31 06:03:06;;;;;;;5.72;1.13;;;23.80;99.90;;;;;;4994103;28;20278;-79
2022/12/31 06:05:40;;;;;;;3.78;0.88;;;23.80;99.90;;;;;;4994128;28;20196;-80
2022/12/31 06:08:13;;;;;;;6.88;1.15;;;23.80;99.90;;;;;;4993833;28;20314;-77
2022/12/31 06:10:44;;;;;;;5.78;1.15;;;23.80;99.90;;;;;;4993675;28;20346;-82
2022/12/31 06:13:15;;;;;;;5.50;1.15;;;23.80;99.90;;;;;;4993816;28;20192;-82
2022/12/31 06:15:46;;;;;;;7.40;1.33;;;23.80;99.90;;;;;;4993999;28;20219;-79
2022/12/31 06:18:16;;;;;;;4.55;1.00;;;23.70;99.90;;;;;;4991219;28;20659;-80
2022/12/31 06:20:47;;;;;;;6.18;0.90;;;23.80;99.90;;;;;;4978109;28;20188;-79
2022/12/31 06:23:20;;;;;;;4.07;0.88;;;23.80;99.90;;;;;;4993226;28;20192;-79
2022/12/31 06:25:51;;;;;;;5.50;0.82;;;23.80;99.90;;;;;;4993990;28;20275;-81
2022/12/31 06:28:21;;;;;;;6.72;1.13;;;23.80;99.90;;;;;;4993948;28;20275;-78
2022/12/31 06:30:52;;;;;;;5.82;0.98;;;23.80;99.90;;;;;;4993795;28;20647;-81
2022/12/31 06:33:23;;;;;;;3.35;0.88;;;23.80;99.90;;;;;;4990401;28;20228;-78
2022/12/31 06:35:58;;;;;;;4.75;1.05;;;23.90;99.90;;;;;;4992069;28;20227;-80
2022/12/31 06:38:32;;;;;;;6.05;1.15;;;23.90;99.90;;;;;;4991835;28;20197;-79
2022/12/31 06:41:06;;;;;;;7.47;1.20;;;23.90;99.90;;;;;;4991139;28;20213;-80
2022/12/31 06:43:38;;;;;;;5.88;1.33;;;23.90;99.90;;;;;;4993521;28;20678;-80
2022/12/31 06:46:11;;;;;;;7.43;1.35;;;23.90;99.90;;;;;;4993460;28;20279;-79
2022/12/31 06:48:43;;;;;;;9.57;1.55;;;23.90;99.90;;;;;;4993505;28;20314;-81
2022/12/31 06:51:17;;;;;;;3.80;0.80;;;23.80;99.90;;;;;;4992814;28;20279;-79
2022/12/31 06:53:51;;;;;;;9.77;1.42;;;23.80;99.90;;;;;;4993254;28;20220;-79
2022/12/31 06:56:24;;;;;;;7.03;1.20;;;23.70;99.90;;;;;;4991224;28;20709;-79
2022/12/31 06:58:55;;;;;;;9.25;1.20;;;23.70;99.90;;;;;;4993549;28;20283;-84
2022/12/31 07:02:15;;;;;;;9.45;1.75;;;23.60;99.90;;;;;;4993512;28;20199;-80
2022/12/31 07:05:15;;;;;;;5.75;1.30;;;23.60;99.90;;;;;;4933669;29;20332;-80
2022/12/31 07:07:55;;;;;;;12.02;1.60;;;23.50;99.90;;;;;;4992841;28;20270;-78
2022/12/31 07:10:38;;;;;;;7.57;1.50;;;23.40;99.90;;;;;;4992874;28;20282;-79
2022/12/31 07:13:34;;;;;;;8.73;1.13;;;23.40;99.90;;;;;;4993132;28;20202;-83
2022/12/31 07:16:19;;;;;;;10.30;1.38;;;23.40;99.90;;;;;;4992942;28;20235;-79
2022/12/31 07:18:53;;;;;;;4.88;1.17;;;23.30;99.90;;;;;;4993125;28;20190;-81
2022/12/31 07:21:31;;;;;;;6.03;1.17;;;23.30;99.90;;;;;;4993019;28;20280;-78
2022/12/31 07:24:02;;;;;;;6.85;1.40;;;23.30;99.90;;;;;;4991637;28;20207;-77
2022/12/31 07:26:49;;;;;;;6.93;1.52;;;23.30;99.90;;;;;;4986692;28;20200;-80
2022/12/31 07:29:26;;;;;;;5.95;1.48;;;23.20;99.90;;;;;;4991142;28;20286;-81
2022/12/31 07:32:07;;;;;;;5.18;0.95;;;23.20;99.90;;;;;;4989828;28;20205;-81
2022/12/31 07:34:48;;;;;;;10.18;1.40;;;23.10;99.90;;;;;;4989352;28;20198;-79
2022/12/31 07:37:28;;;;;;;3.95;0.85;;;23.10;99.90;;;;;;4994336;28;20286;-79
2022/12/31 07:40:05;;;;;;;6.75;1.08;;;23.00;99.90;;;;;;4993886;28;20286;-79
2022/12/31 07:42:46;;;;;;;12.57;1.48;;;23.00;99.90;;;;;;4992715;28;20206;-79
2022/12/31 07:45:22;;;;;;;5.70;1.15;;;23.00;99.90;;;;;;4995304;28;20203;-80
2022/12/31 07:47:53;;;;;;;8.35;1.80;;;23.00;99.90;;;;;;4993532;28;20670;-78
2022/12/31 07:50:24;;;;;;;9.50;1.42;;;23.00;99.90;;;;;;4994474;28;20195;-79
2022/12/31 07:52:55;;;;;;;9.15;1.48;;;22.90;99.90;;;;;;4995012;28;20204;-79
2022/12/31 07:55:26;;;;;;;7.00;1.20;;;22.90;99.90;;;;;;4994463;28;20223;-79
2022/12/31 07:58:07;;;;;;;7.75;1.30;;;22.90;99.90;;;;;;4991717;28;20652;-78
2022/12/31 08:00:38;;;;;;;6.85;1.45;;;22.80;99.90;;;;;;4992208;28;20286;-79
2022/12/31 08:03:18;;;;;;;8.27;1.67;;;22.80;99.90;;;;;;4995570;28;20559;-80
2022/12/31 08:06:12;;;;;;;7.93;1.23;;;22.80;99.90;;;;;;4995039;28;20210;-79
2022/12/31 08:08:52;;;;;;;11.57;1.42;;;22.80;99.90;;;;;;4995116;28;20203;-78
2022/12/31 08:11:30;;;;;;;7.45;1.40;;;22.80;99.90;;;;;;4992533;28;20192;-79
2022/12/31 08:14:04;;;;;;;6.95;1.20;;;22.80;99.90;;;;;;4995389;28;20291;-78
2022/12/31 08:16:35;;;;;;;9.57;1.60;;;22.80;99.90;;;;;;4995512;28;20251;-80
2022/12/31 08:19:06;;;;;;;9.45;1.65;;;22.90;99.90;;;;;;4991891;28;20192;-79
2022/12/31 08:21:45;;;;;;;12.60;1.83;;;22.90;99.90;;;;;;4988181;28;20457;-78
2022/12/31 08:24:24;;;;;;;7.55;1.42;;;22.90;99.90;;;;;;4991292;28;20200;-78
2022/12/31 08:27:04;;;;;;;11.80;1.95;;;23.00;99.90;;;;;;4994774;28;20203;-78
2022/12/31 08:29:46;;;;;;;8.52;1.60;;;22.90;99.90;;;;;;4978634;28;20196;-79
2022/12/31 08:32:30;;;;;;;9.80;1.33;;;22.90;99.90;;;;;;4992527;28;20279;-78
2022/12/31 08:35:07;;;;;;;9.50;1.70;;;22.90;99.90;;;;;;4992985;28;20281;-80
2022/12/31 08:37:41;;;;;;;12.43;1.90;;;22.90;99.90;;;;;;4994667;28;20195;-79
2022/12/31 08:40:22;;;;;;;10.80;2.25;;;22.80;99.90;;;;;;4995567;28;20278;-80
2022/12/31 08:43:18;;;;;;;9.85;1.65;;;22.90;99.90;;;;;;4995737;28;20192;-78
2022/12/31 08:45:53;;;;;;;10.70;1.88;;;22.80;99.90;;;;;;4995581;28;20644;-79
2022/12/31 08:48:31;;;;;;;13.27;1.75;;;22.80;99.90;;;;;;4995176;28;20231;-80
2022/12/31 08:51:02;;;;;;;11.50;1.90;;;22.80;99.90;;;;;;4995583;28;20192;-79
2022/12/31 08:53:34;;;;;;;12.25;1.90;;;22.80;99.90;;;;;;4995597;28;20192;-79
2022/12/31 08:56:11;;;;;;;12.65;1.70;;;22.70;99.90;;;;;;4995454;28;20223;-78
2022/12/31 08:58:54;;;;;;;12.85;1.88;;;22.70;99.90;;;;;;4995422;28;20209;-80
2022/12/31 09:01:34;;;;;;;12.18;1.90;;;22.70;99.90;;;;;;4995410;28;20663;-80
2022/12/31 09:04:29;;;;;;;12.88;1.90;;;22.70;99.90;;;;;;4995375;28;20275;-80
2022/12/31 09:07:02;;;;;;;14.88;2.45;;;22.60;99.90;;;;;;4995255;28;20227;-79
2022/12/31 09:16:22;;;;;;;15.93;2.28;;;22.60;99.90;;;;;;4994791;28;20266;-79
2022/12/31 09:18:55;;;;;;;10.13;1.75;;;22.60;99.90;;;;;;4995069;28;20191;-80
2022/12/31 09:21:26;;;;;;;11.57;1.92;;;22.50;99.90;;;;;;4995270;28;20191;-80
2022/12/31 09:23:57;;;;;;;11.68;2.30;;;22.50;99.90;;;;;;4995042;28;20192;-79
2022/12/31 09:26:41;;;;;;;12.95;1.77;;;22.50;99.90;;;;;;4994984;28;20290;-79
2022/12/31 09:29:21;;;;;;;24.35;2.70;;;22.50;99.90;;;;;;4995294;28;20275;-80
2022/12/31 09:31:58;;;;;;;14.57;2.47;;;22.50;99.90;;;;;;4994603;28;20278;-79
2022/12/31 09:34:36;;;;;;;19.35;2.63;;;22.40;99.90;;;;;;4994854;28;20563;-79
2022/12/31 09:37:14;;;;;;;14.13;2.58;;;22.40;99.90;;;;;;4994739;28;20311;-79
2022/12/31 09:39:47;;;;;;;16.65;2.17;;;22.40;99.90;;;;;;4994704;28;20188;-80
2022/12/31 09:42:59;;;;;;;14.60;2.63;;;22.40;99.90;;;;;;4994709;28;20278;-79
2022/12/31 09:46:01;;;;;;;11.23;2.40;;;22.30;99.90;;;;;;4994443;28;20275;-80
2022/12/31 09:49:06;;;;;;;18.52;2.20;;;22.30;99.90;;;;;;4992433;28;20235;-80
2022/12/31 09:51:46;;;;;;;14.10;2.65;;;22.30;99.90;;;;;;4994525;28;20193;-81
2022/12/31 09:54:30;;;;;;;17.65;2.50;;;22.30;99.90;;;;;;4994354;28;20282;-80
2022/12/31 09:57:22;;;;;;;12.95;2.22;;;22.30;99.90;;;;;;4994637;28;20307;-81
2022/12/31 10:00:01;;;;;;;14.40;2.10;;;22.30;99.90;;;;;;4993560;28;20335;-79
2022/12/31 10:02:48;;;;;;;13.93;2.13;;;22.20;99.90;;;;;;4994746;28;20553;-79
2022/12/31 10:05:48;;;;;;;17.13;2.40;;;22.30;99.90;;;;;;4994358;28;20194;-80
2022/12/31 10:08:36;;;;;;;14.80;2.10;;;22.30;99.90;;;;;;4994322;28;20219;-79
2022/12/31 10:11:16;;;;;;;11.32;2.38;;;22.30;99.90;;;;;;4994163;28;20298;-80
2022/12/31 10:13:58;;;;;;;11.75;2.80;;;22.30;99.90;;;;;;4994198;28;20202;-79
2022/12/31 10:16:53;;;;;;;16.85;3.45;;;22.30;99.90;;;;;;4994124;28;20311;-81
2022/12/31 10:19:53;;;;;;;144.95;86.68;;;22.30;99.90;;;;;;4994377;28;20290;-79
2022/12/31 10:22:45;;;;;;;166.05;105.30;;;22.20;99.90;;;;;;4994213;28;20195;-80
2022/12/31 10:25:36;;;;;;;275.83;159.82;;;22.20;99.90;;;;;;4994161;28;20308;-80
2022/12/31 10:28:16;;;;;;;153.43;96.18;;;22.20;99.90;;;;;;4994113;28;20620;-80
2022/12/31 10:30:58;;;;;;;131.13;78.53;;;22.20;99.90;;;;;;4993773;28;20247;-79
2022/12/31 10:33:45;;;;;;;113.95;69.45;;;22.20;99.90;;;;;;4994001;28;20191;-80
2022/12/31 10:36:24;;;;;;;53.92;32.60;;;22.20;99.90;;;;;;4993829;28;20239;-79
2022/12/31 10:39:04;;;;;;;42.13;20.45;;;22.20;99.90;;;;;;4993933;28;20552;-80
2022/12/31 10:45:15;;;;;;;16.38;5.18;;;22.20;99.90;;;;;;5152394;27;20474;-79
2022/12/31 10:48:18;;;;;;;13.70;3.30;;;22.20;99.90;;;;;;5131746;27;20193;-80
2022/12/31 10:51:17;;;;;;;19.17;2.83;;;22.20;99.90;;;;;;5107477;28;20209;-80
2022/12/31 10:54:25;;;;;;;15.77;2.35;;;22.30;99.90;;;;;;5131558;27;20209;-80
2022/12/31 10:57:36;;;;;;;16.98;2.60;;;22.30;99.90;;;;;;5063987;27;20203;-79
2022/12/31 11:00:18;;;;;;;13.25;2.28;;;22.30;99.90;;;;;;5131405;27;20550;-80
2022/12/31 11:03:34;;;;;;;12.88;2.03;;;22.20;99.90;;;;;;5131400;27;20302;-79
2022/12/31 11:06:42;;;;;;;15.73;2.67;;;22.20;99.90;;;;;;5066161;27;20630;-81
2022/12/31 11:09:41;;;;;;;12.23;2.00;;;22.30;99.90;;;;;;5110898;28;20196;-79
2022/12/31 11:12:21;;;;;;;15.13;2.15;;;22.20;99.90;;;;;;5110505;28;20188;-79
2022/12/31 11:15:28;;;;;;;10.82;1.92;;;22.30;99.90;;;;;;5110742;28;20188;-79
2022/12/31 11:18:09;;;;;;;14.70;2.30;;;22.30;99.90;;;;;;5095742;28;20283;-79
2022/12/31 11:21:06;;;;;;;11.50;2.08;;;22.30;99.90;;;;;;5110611;28;20190;-78
2022/12/31 11:23:47;;;;;;;12.00;2.03;;;22.30;99.90;;;;;;5110520;28;20238;-79
2022/12/31 11:26:28;;;;;;;8.85;1.65;;;22.20;99.90;;;;;;5110429;28;20274;-80
2022/12/31 11:29:27;;;;;;;14.60;2.20;;;22.30;99.90;;;;;;5110458;28;20279;-80
2022/12/31 11:32:08;;;;;;;9.00;1.70;;;22.20;99.90;;;;;;5105501;28;20286;-79
2022/12/31 11:35:07;;;;;;;16.40;2.15;;;22.20;99.90;;;;;;5110355;28;20191;-79
2022/12/31 11:37:47;;;;;;;10.00;1.75;;;22.20;99.90;;;;;;5097852;28;20200;-80
2022/12/31 11:40:53;;;;;;;11.63;1.70;;;22.20;99.90;;;;;;5110183;28;20194;-79
2022/12/31 11:43:34;;;;;;;13.25;2.35;;;22.20;99.90;;;;;;5106050;28;20235;-80
2022/12/31 11:46:44;;;;;;;14.18;2.15;;;22.20;99.90;;;;;;5110155;28;20563;-80
2022/12/31 11:49:51;;;;;;;13.30;2.45;;;22.20;99.90;;;;;;5100504;28;20203;-79
2022/12/31 11:52:48;;;;;;;13.35;1.90;;;22.20;99.90;;;;;;5109933;28;20585;-77
2022/12/31 11:55:39;;;;;;;13.40;2.28;;;22.20;99.90;;;;;;5100703;28;20271;-79
2022/12/31 11:58:19;;;;;;;11.38;1.90;;;22.10;99.90;;;;;;5096324;28;20193;-79
2022/12/31 12:00:56;;;;;;;15.77;2.10;;;22.10;99.90;;;;;;5096233;28;20192;-79
2022/12/31 12:03:27;;;;;;;15.77;2.20;;;22.10;99.90;;;;;;5096156;28;20786;-79
2022/12/31 12:06:01;;;;;;;16.17;2.20;;;22.10;99.90;;;;;;5096084;28;20586;-80
2022/12/31 12:08:34;;;;;;;12.07;2.40;;;22.10;99.90;;;;;;5095905;28;20202;-79
2022/12/31 12:11:09;;;;;;;13.15;2.17;;;22.10;99.90;;;;;;5095811;28;20276;-80
2022/12/31 12:13:40;;;;;;;9.85;1.80;;;22.10;99.90;;;;;;5095985;28;20192;-80
2022/12/31 12:16:11;;;;;;;14.85;2.08;;;22.10;99.90;;;;;;5095927;28;20231;-80
2022/12/31 12:18:45;;;;;;;13.13;2.15;;;22.00;99.90;;;;;;5095950;28;20192;-80
2022/12/31 12:21:20;;;;;;;13.13;1.92;;;22.00;99.90;;;;;;5095818;28;20275;-80
2022/12/31 12:24:01;;;;;;;12.20;1.90;;;22.00;99.90;;;;;;5095835;28;20667;-80
2022/12/31 12:26:36;;;;;;;15.77;2.20;;;22.00;99.90;;;;;;5095562;28;20333;-80
2022/12/31 12:29:17;;;;;;;13.75;2.10;;;21.90;99.90;;;;;;5095665;28;20271;-80
2022/12/31 12:31:58;;;;;;;10.07;1.85;;;21.90;99.90;;;;;;5095708;28;20279;-79
2022/12/31 12:34:31;;;;;;;13.27;2.08;;;21.90;99.90;;;;;;5095686;28;20635;-79
2022/12/31 12:37:04;;;;;;;9.77;1.70;;;21.90;99.90;;;;;;5095587;28;20190;-79
2022/12/31 12:39:36;;;;;;;10.93;1.80;;;21.90;99.90;;;;;;5095245;28;20275;-80
2022/12/31 12:42:14;;;;;;;13.65;2.10;;;21.90;99.90;;;;;;5095525;28;20280;-80
2022/12/31 12:44:45;;;;;;;9.48;1.73;;;21.90;99.90;;;;;;5095286;28;20230;-80
2022/12/31 12:47:19;;;;;;;13.75;2.00;;;21.90;99.90;;;;;;5095360;28;20192;-80
2022/12/31 12:49:55;;;;;;;15.63;2.25;;;21.90;99.90;;;;;;5095257;28;20550;-79
2022/12/31 12:52:50;;;;;;;13.15;2.55;;;21.80;99.90;;;;;;5095309;28;20192;-79
2022/12/31 12:55:26;;;;;;;7.50;1.95;;;21.90;99.90;;;;;;5095039;28;20191;-80
2022/12/31 12:58:06;;;;;;;11.20;1.80;;;21.90;99.90;;;;;;5095161;28;20192;-79
2022/12/31 13:00:46;;;;;;;11.90;2.53;;;21.90;99.90;;;;;;5095292;28;20271;-79
2022/12/31 13:03:53;;;;;;;11.23;2.10;;;21.90;99.90;;;;;;5094872;28;20753;-80
2022/12/31 13:06:33;;;;;;;10.95;2.03;;;21.90;99.90;;;;;;5093798;28;20302;-79
2022/12/31 13:09:21;;;;;;;8.13;1.67;;;21.90;99.90;;;;;;5094686;28;20528;-79
2022/12/31 13:12:01;;;;;;;6.60;1.38;;;21.90;99.90;;;;;;5094943;28;20184;-79
2022/12/31 13:14:38;;;;;;;11.82;1.90;;;21.90;99.90;;;;;;5094822;28;20278;-80
2022/12/31 13:17:25;;;;;;;9.50;2.00;;;21.80;99.90;;;;;;5094744;28;20188;-79
2022/12/31 13:20:00;;;;;;;11.77;3.25;;;21.80;99.90;;;;;;5094737;28;20625;-80
2022/12/31 13:22:35;;;;;;;40.78;23.20;;;21.80;99.90;;;;;;5094459;28;20188;-79
2022/12/31 13:25:23;;;;;;;51.47;30.73;;;21.80;99.90;;;;;;5094534;28;20223;-78
2022/12/31 13:27:57;;;;;;;94.63;53.17;;;21.80;99.90;;;;;;5094653;28;20281;-78
2022/12/31 13:30:31;;;;;;;148.20;92.10;;;21.80;99.90;;;;;;5094467;28;20703;-78
2022/12/31 13:33:06;;;;;;;217.90;131.98;;;21.80;99.90;;;;;;5094536;28;20707;-78
2022/12/31 13:35:44;;;;;;;234.48;140.73;;;21.80;99.90;;;;;;5094375;28;20192;-79
2022/12/31 13:38:21;;;;;;;205.90;127.10;;;21.80;99.90;;;;;;5094243;28;20284;-78
2022/12/31 13:41:02;;;;;;;181.48;111.50;;;21.80;99.90;;;;;;5094373;28;20188;-78
2022/12/31 13:43:39;;;;;;;173.70;103.43;;;21.90;99.90;;;;;;5094075;28;20235;-78
2022/12/31 13:46:26;;;;;;;155.27;89.95;;;21.80;99.90;;;;;;5100929;22;20746;-82
2022/12/31 13:49:01;;;;;;;122.38;72.07;;;21.90;99.90;;;;;;5073963;28;20203;-82
2022/12/31 13:51:43;;;;;;;106.32;64.45;;;21.90;99.90;;;;;;5073962;28;20191;-81
2022/12/31 13:54:28;;;;;;;105.97;64.55;;;21.90;99.90;;;;;;5073852;28;20632;-83
2022/12/31 13:57:06;;;;;;;112.72;62.58;;;21.90;99.90;;;;;;5073852;28;20189;-83
2022/12/31 13:59:40;;;;;;;93.50;54.38;;;21.90;99.90;;;;;;5073848;28;20280;-81
2022/12/31 14:02:28;;;;;;;40.83;21.63;;;21.90;99.90;;;;;;5074220;28;20278;-82
2022/12/31 14:05:03;;;;;;;36.45;18.27;;;21.90;99.90;;;;;;5073746;28;20766;-80